Time,TemperatureF,DewpointF,PressureIn,WindDirection,WindDirectionDegrees,WindSpeedMPH,WindSpeedGustMPH,Humidity,HourlyPrecipIn,Conditions,Clouds,dailyrainin,SoftwareType,DateUTC
2013-02-01 00:03:00,40.4,31.0,30.18,SE,135,0.0,0.0,69,0.00,,,0.00,WUHU216HW,2013-02-01 08:03:00,
2013-02-01 00:08:00,40.4,31.0,30.18,SE,135,0.0,0.0,69,0.00,,,0.00,WUHU216HW,2013-02-01 08:08:00,
2013-02-01 00:13:00,40.2,31.2,30.18,SSE,158,0.0,0.0,70,0.00,,,0.00,WUHU216HW,2013-02-01 08:13:00,
2013-02-01 00:18:00,40.1,31.1,30.17,SSE,158,0.0,0.0,70,0.00,,,0.00,WUHU216HW,2013-02-01 08:18:00,
2013-02-01 00:23:00,40.1,31.4,30.18,SSE,158,0.0,0.0,71,0.00,,,0.00,WUHU216HW,2013-02-01 08:23:00,
2013-02-01 00:28:00,39.9,31.2,30.17,SSE,158,0.0,0.0,71,0.00,,,0.00,WUHU216HW,2013-02-01 08:28:00,
2013-02-01 00:33:00,39.9,31.2,30.17,SSE,158,0.0,0.0,71,0.00,,,0.00,WUHU216HW,2013-02-01 08:33:00,
2013-02-01 00:38:00,39.7,31.0,30.17,SSE,158,0.0,0.0,71,0.00,,,0.00,WUHU216HW,2013-02-01 08:38:00,
2013-02-01 00:43:00,39.7,31.0,30.17,SSE,158,0.0,0.0,71,0.00,,,0.00,WUHU216HW,2013-02-01 08:43:00,
2013-02-01 00:48:00,39.7,31.4,30.17,SSE,158,0.0,0.0,72,0.00,,,0.00,WUHU216HW,2013-02-01 08:48:00,
2013-02-01 00:53:00,39.5,31.5,30.17,SSE,158,0.0,0.0,73,0.00,,,0.00,WUHU216HW,2013-02-01 08:53:00,
2013-02-01 00:58:00,39.5,31.5,30.17,SSE,158,0.0,0.0,73,0.00,,,0.00,WUHU216HW,2013-02-01 08:58:00,
2013-02-01 01:03:00,39.5,31.9,30.17,SSE,158,0.0,0.0,74,0.00,,,0.00,WUHU216HW,2013-02-01 09:03:00,
2013-02-01 01:08:00,39.3,31.7,30.17,SSE,158,0.0,0.0,74,0.00,,,0.00,WUHU216HW,2013-02-01 09:08:00,
2013-02-01 01:13:00,39.3,31.7,30.17,SSE,158,0.0,0.0,74,0.00,,,0.00,WUHU216HW,2013-02-01 09:13:00,
2013-02-01 01:18:00,39.2,31.5,30.17,SSE,158,0.0,0.0,74,0.00,,,0.00,WUHU216HW,2013-02-01 09:18:00,
2013-02-01 01:23:00,39.2,31.5,30.17,SSE,158,0.0,0.0,74,0.00,,,0.00,WUHU216HW,2013-02-01 09:23:00,
2013-02-01 01:28:00,38.8,31.2,30.17,SSE,158,0.0,0.0,74,0.00,,,0.00,WUHU216HW,2013-02-01 09:28:00,
2013-02-01 01:33:00,38.8,30.8,30.17,SSW,203,0.0,0.0,73,0.00,,,0.00,WUHU216HW,2013-02-01 09:33:00,
2013-02-01 01:38:00,38.8,30.8,30.17,SSW,203,0.0,0.0,73,0.00,,,0.00,WUHU216HW,2013-02-01 09:38:00,
2013-02-01 01:43:00,38.8,31.2,30.17,SSW,203,0.0,0.0,74,0.00,,,0.00,WUHU216HW,2013-02-01 09:43:00,
2013-02-01 01:48:00,38.6,30.7,30.17,SSW,203,0.0,0.0,73,0.00,,,0.00,WUHU216HW,2013-02-01 09:48:00,
2013-02-01 01:53:00,38.3,30.3,30.17,SSW,203,0.0,0.0,73,0.00,,,0.00,WUHU216HW,2013-02-01 09:53:00,
2013-02-01 01:58:00,38.3,30.3,30.17,SSW,203,0.0,0.0,73,0.00,,,0.00,WUHU216HW,2013-02-01 09:58:00,
2013-02-01 02:03:00,38.3,30.3,30.17,SSW,203,0.0,0.0,73,0.00,,,0.00,WUHU216HW,2013-02-01 10:03:00,
2013-02-01 02:08:00,38.1,30.2,30.17,SSW,203,0.0,0.0,73,0.00,,,0.00,WUHU216HW,2013-02-01 10:08:00,
2013-02-01 02:13:00,38.1,30.2,30.17,SSW,203,0.0,0.0,73,0.00,,,0.00,WUHU216HW,2013-02-01 10:13:00,
2013-02-01 02:18:00,37.9,30.3,30.17,SSW,203,0.0,0.0,74,0.00,,,0.00,WUHU216HW,2013-02-01 10:18:00,
2013-02-01 02:23:00,37.9,30.3,30.17,SSW,203,0.0,0.0,75,0.00,,,0.00,WUHU216HW,2013-02-01 10:23:00,
2013-02-01 02:29:00,37.7,30.5,30.17,SSW,203,0.0,0.0,75,0.00,,,0.00,WUHU216HW,2013-02-01 10:29:00,
2013-02-01 02:34:00,37.7,30.5,30.17,SSW,203,0.0,0.0,75,0.00,,,0.00,WUHU216HW,2013-02-01 10:34:00,
2013-02-01 02:39:00,37.7,30.8,30.17,SSW,203,0.0,0.0,76,0.00,,,0.00,WUHU216HW,2013-02-01 10:39:00,
2013-02-01 02:44:00,37.7,30.8,30.17,SSW,203,0.0,0.0,76,0.00,,,0.00,WUHU216HW,2013-02-01 10:44:00,
2013-02-01 02:49:00,37.7,30.8,30.17,SSW,203,0.0,0.0,76,0.00,,,0.00,WUHU216HW,2013-02-01 10:49:00,
2013-02-01 02:54:00,37.5,30.6,30.17,SSW,203,0.0,0.0,76,0.00,,,0.00,WUHU216HW,2013-02-01 10:54:00,
2013-02-01 02:59:00,37.5,30.6,30.17,SSW,203,0.0,0.0,76,0.00,,,0.00,WUHU216HW,2013-02-01 10:59:00,
2013-02-01 03:04:00,37.4,30.5,30.17,SSW,203,0.0,0.0,76,0.00,,,0.00,WUHU216HW,2013-02-01 11:04:00,
2013-02-01 03:09:00,37.4,30.5,30.17,SSW,203,0.0,0.0,76,0.00,,,0.00,WUHU216HW,2013-02-01 11:09:00,
2013-02-01 03:14:00,37.0,30.1,30.17,SSW,203,0.0,0.0,76,0.00,,,0.00,WUHU216HW,2013-02-01 11:14:00,
2013-02-01 03:19:00,37.2,30.0,30.17,SSW,203,0.0,0.0,75,0.00,,,0.00,WUHU216HW,2013-02-01 11:19:00,
2013-02-01 03:24:00,37.0,30.1,30.17,SSW,203,0.0,0.0,76,0.00,,,0.00,WUHU216HW,2013-02-01 11:24:00,
2013-02-01 03:29:00,36.8,29.9,30.17,SSW,203,0.0,0.0,76,0.00,,,0.00,WUHU216HW,2013-02-01 11:29:00,
2013-02-01 03:34:00,36.8,29.9,30.17,SSW,203,0.0,0.0,76,0.00,,,0.00,WUHU216HW,2013-02-01 11:34:00,
2013-02-01 03:39:00,36.8,29.9,30.17,SSW,203,0.0,0.0,76,0.00,,,0.00,WUHU216HW,2013-02-01 11:39:00,
2013-02-01 03:44:00,36.8,29.9,30.17,SSW,203,0.0,0.0,76,0.00,,,0.00,WUHU216HW,2013-02-01 11:44:00,
2013-02-01 03:49:00,36.5,29.6,30.17,SSW,203,0.0,0.0,76,0.00,,,0.00,WUHU216HW,2013-02-01 11:49:00,
2013-02-01 03:54:00,36.5,29.6,30.17,SSW,203,0.0,0.0,76,0.00,,,0.00,WUHU216HW,2013-02-01 11:54:00,
2013-02-01 03:59:00,36.5,29.3,30.17,SSW,203,0.0,0.0,75,0.00,,,0.00,WUHU216HW,2013-02-01 11:59:00,
2013-02-01 04:04:00,36.3,29.1,30.17,SSW,203,0.0,0.0,75,0.00,,,0.00,WUHU216HW,2013-02-01 12:04:00,
2013-02-01 04:09:00,36.1,28.9,30.17,SSW,203,0.0,0.0,75,0.00,,,0.00,WUHU216HW,2013-02-01 12:09:00,
2013-02-01 04:14:00,36.1,28.9,30.17,SSW,203,0.0,0.0,75,0.00,,,0.00,WUHU216HW,2013-02-01 12:14:00,
2013-02-01 04:19:00,36.1,28.9,30.17,SSW,203,0.0,0.0,75,0.00,,,0.00,WUHU216HW,2013-02-01 12:19:00,
2013-02-01 04:24:00,35.9,28.7,30.17,SSW,203,0.0,0.0,75,0.00,,,0.00,WUHU216HW,2013-02-01 12:24:00,
2013-02-01 04:29:00,35.9,28.7,30.17,SSW,203,0.0,0.0,75,0.00,,,0.00,WUHU216HW,2013-02-01 12:29:00,
2013-02-01 04:34:00,35.9,28.7,30.17,SSW,203,0.0,0.0,75,0.00,,,0.00,WUHU216HW,2013-02-01 12:34:00,
2013-02-01 04:39:00,35.7,28.5,30.17,SSW,203,0.0,0.0,75,0.00,,,0.00,WUHU216HW,2013-02-01 12:39:00,
2013-02-01 04:44:00,35.7,28.5,30.17,SSW,203,0.0,0.0,75,0.00,,,0.00,WUHU216HW,2013-02-01 12:44:00,
2013-02-01 04:49:00,35.7,28.5,30.17,SSW,203,0.0,0.0,75,0.00,,,0.00,WUHU216HW,2013-02-01 12:49:00,
2013-02-01 04:54:00,35.7,28.5,30.17,SSW,203,0.0,0.0,75,0.00,,,0.00,WUHU216HW,2013-02-01 12:54:00,
2013-02-01 04:59:00,35.7,28.5,30.17,SSW,203,0.0,0.0,75,0.00,,,0.00,WUHU216HW,2013-02-01 12:59:00,
2013-02-01 05:04:00,35.2,28.0,30.17,SSW,203,0.0,0.0,75,0.00,,,0.00,WUHU216HW,2013-02-01 13:04:00,
2013-02-01 05:09:00,35.2,28.0,30.17,SSW,203,0.0,0.0,75,0.00,,,0.00,WUHU216HW,2013-02-01 13:09:00,
2013-02-01 05:14:00,35.2,27.7,30.17,SSW,203,0.0,0.0,74,0.00,,,0.00,WUHU216HW,2013-02-01 13:14:00,
2013-02-01 05:19:00,35.2,27.7,30.17,SSW,203,0.0,0.0,74,0.00,,,0.00,WUHU216HW,2013-02-01 13:19:00,
2013-02-01 05:24:00,35.2,27.7,30.17,SSW,203,0.0,0.0,74,0.00,,,0.00,WUHU216HW,2013-02-01 13:24:00,
2013-02-01 05:29:00,35.0,27.5,30.17,SSW,203,0.0,0.0,74,0.00,,,0.00,WUHU216HW,2013-02-01 13:29:00,
2013-02-01 05:34:00,35.0,27.5,30.17,SSW,203,0.0,0.0,74,0.00,,,0.00,WUHU216HW,2013-02-01 13:34:00,
2013-02-01 05:40:00,35.0,27.5,30.17,SSW,203,0.0,0.0,74,0.00,,,0.00,WUHU216HW,2013-02-01 13:40:00,
2013-02-01 05:45:00,35.0,27.8,30.17,SSW,203,0.0,0.0,75,0.00,,,0.00,WUHU216HW,2013-02-01 13:45:00,
2013-02-01 05:50:00,35.2,28.0,30.18,SSW,203,0.0,0.0,75,0.00,,,0.00,WUHU216HW,2013-02-01 13:50:00,
2013-02-01 05:55:00,35.0,27.8,30.18,SSW,203,0.0,0.0,75,0.00,,,0.00,WUHU216HW,2013-02-01 13:55:00,
2013-02-01 06:00:00,35.0,27.8,30.18,SSW,203,0.0,0.0,75,0.00,,,0.00,WUHU216HW,2013-02-01 14:00:00,
2013-02-01 06:05:00,35.0,28.1,30.18,SSW,203,0.0,0.0,76,0.00,,,0.00,WUHU216HW,2013-02-01 14:05:00,
2013-02-01 06:10:00,35.0,28.1,30.18,SSW,203,0.0,0.0,76,0.00,,,0.00,WUHU216HW,2013-02-01 14:10:00,
2013-02-01 06:15:00,34.8,28.0,30.18,SSW,203,0.0,0.0,76,0.00,,,0.00,WUHU216HW,2013-02-01 14:15:00,
2013-02-01 06:20:00,34.8,28.0,30.19,SSW,203,0.0,0.0,76,0.00,,,0.00,WUHU216HW,2013-02-01 14:20:00,
2013-02-01 06:25:00,35.0,28.1,30.18,SSW,203,0.0,0.0,76,0.00,,,0.00,WUHU216HW,2013-02-01 14:25:00,
2013-02-01 06:30:00,35.0,28.1,30.18,SSW,203,0.0,0.0,76,0.00,,,0.00,WUHU216HW,2013-02-01 14:30:00,
2013-02-01 06:35:00,34.8,28.0,30.18,SSW,203,0.0,0.0,76,0.00,,,0.00,WUHU216HW,2013-02-01 14:35:00,
2013-02-01 06:40:00,34.7,27.8,30.18,SSW,203,0.0,0.0,76,0.00,,,0.00,WUHU216HW,2013-02-01 14:40:00,
2013-02-01 06:45:00,34.7,27.8,30.18,SSW,203,0.0,0.0,76,0.00,,,0.00,WUHU216HW,2013-02-01 14:45:00,
2013-02-01 06:50:00,34.7,27.8,30.18,SSW,203,0.0,0.0,76,0.00,,,0.00,WUHU216HW,2013-02-01 14:50:00,
2013-02-01 06:55:00,34.5,27.8,30.18,SSW,203,0.0,0.0,76,0.00,,,0.00,WUHU216HW,2013-02-01 14:55:00,
2013-02-01 07:00:00,34.5,27.3,30.19,SSW,203,0.0,0.0,75,0.00,,,0.00,WUHU216HW,2013-02-01 15:00:00,
2013-02-01 07:05:00,34.5,27.3,30.19,SSW,203,0.0,0.0,75,0.00,,,0.00,WUHU216HW,2013-02-01 15:05:00,
2013-02-01 07:10:00,34.3,27.1,30.19,SSW,203,0.0,0.0,75,0.00,,,0.00,WUHU216HW,2013-02-01 15:10:00,
2013-02-01 07:15:00,34.3,27.1,30.20,SSW,203,0.0,0.0,75,0.00,,,0.00,WUHU216HW,2013-02-01 15:15:00,
2013-02-01 07:20:00,34.1,26.9,30.20,SSW,203,0.0,0.0,75,0.00,,,0.00,WUHU216HW,2013-02-01 15:20:00,
2013-02-01 07:25:00,34.5,27.6,30.20,SSW,203,0.0,0.0,76,0.00,,,0.00,WUHU216HW,2013-02-01 15:25:00,
2013-02-01 07:30:00,34.5,27.6,30.20,SSW,203,0.0,0.0,76,0.00,,,0.00,WUHU216HW,2013-02-01 15:30:00,
2013-02-01 07:35:00,34.5,27.6,30.20,SSW,203,0.0,0.0,76,0.00,,,0.00,WUHU216HW,2013-02-01 15:35:00,
2013-02-01 07:40:00,34.5,27.6,30.20,SSW,203,0.0,0.0,76,0.00,,,0.00,WUHU216HW,2013-02-01 15:40:00,
2013-02-01 07:45:00,34.7,28.1,30.20,SSW,203,0.0,0.0,77,0.00,,,0.00,WUHU216HW,2013-02-01 15:45:00,
2013-02-01 07:50:00,34.7,28.1,30.20,SSW,203,0.0,0.0,77,0.00,,,0.00,WUHU216HW,2013-02-01 15:50:00,
2013-02-01 07:55:00,34.8,28.3,30.20,SSW,203,0.0,0.0,77,0.00,,,0.00,WUHU216HW,2013-02-01 15:55:00,
2013-02-01 08:00:00,35.0,28.8,30.20,SSW,203,0.0,0.0,78,0.00,,,0.00,WUHU216HW,2013-02-01 16:00:00,
2013-02-01 08:05:00,35.0,28.8,30.20,SSW,203,0.0,0.0,78,0.00,,,0.00,WUHU216HW,2013-02-01 16:05:00,
2013-02-01 08:10:00,35.4,29.5,30.20,SSW,203,0.0,0.0,79,0.00,,,0.00,WUHU216HW,2013-02-01 16:10:00,
2013-02-01 08:15:00,35.7,29.8,30.20,SSW,203,0.0,0.0,79,0.00,,,0.00,WUHU216HW,2013-02-01 16:15:00,
2013-02-01 08:20:00,35.7,29.8,30.20,SSW,203,0.0,0.0,79,0.00,,,0.00,WUHU216HW,2013-02-01 16:20:00,
2013-02-01 08:25:00,35.9,30.0,30.20,SSW,203,0.0,0.0,79,0.00,,,0.00,WUHU216HW,2013-02-01 16:25:00,
2013-02-01 08:30:00,36.3,30.7,30.20,SSW,203,0.0,0.0,80,0.00,,,0.00,WUHU216HW,2013-02-01 16:30:00,
2013-02-01 08:35:00,36.3,30.7,30.20,SSW,203,0.0,0.0,80,0.00,,,0.00,WUHU216HW,2013-02-01 16:35:00,
2013-02-01 08:40:00,36.3,30.7,30.20,SSW,203,0.0,0.0,80,0.00,,,0.00,WUHU216HW,2013-02-01 16:40:00,
2013-02-01 08:45:00,36.3,31.0,30.20,SSW,203,0.0,0.0,81,0.00,,,0.00,WUHU216HW,2013-02-01 16:45:00,
2013-02-01 08:50:00,37.9,32.9,30.20,SSW,203,0.0,0.0,82,0.00,,,0.00,WUHU216HW,2013-02-01 16:50:00,
2013-02-01 08:55:00,38.8,33.8,30.20,SSW,203,0.0,0.0,82,0.00,,,0.00,WUHU216HW,2013-02-01 16:55:00,
2013-02-01 09:00:00,39.9,35.4,30.21,SSW,203,0.0,0.0,84,0.00,,,0.00,WUHU216HW,2013-02-01 17:00:00,
2013-02-01 09:06:00,40.6,36.1,30.20,West,270,0.0,0.0,84,0.00,,,0.00,WUHU216HW,2013-02-01 17:06:00,
2013-02-01 09:11:00,41.0,36.4,30.20,West,270,0.0,0.0,84,0.00,,,0.00,WUHU216HW,2013-02-01 17:11:00,
2013-02-01 09:16:00,42.2,38.0,30.20,West,270,0.0,0.0,85,0.00,,,0.00,WUHU216HW,2013-02-01 17:16:00,
2013-02-01 09:21:00,43.3,38.8,30.20,West,270,0.0,0.0,84,0.00,,,0.00,WUHU216HW,2013-02-01 17:21:00,
2013-02-01 09:26:00,44.0,39.2,30.20,West,270,0.0,0.0,83,0.00,,,0.00,WUHU216HW,2013-02-01 17:26:00,
2013-02-01 09:31:00,45.5,40.6,30.20,West,270,0.0,0.0,83,0.00,,,0.00,WUHU216HW,2013-02-01 17:31:00,
2013-02-01 09:36:00,45.8,40.7,30.20,West,270,0.0,0.0,82,0.00,,,0.00,WUHU216HW,2013-02-01 17:36:00,
2013-02-01 09:41:00,47.6,42.7,30.20,West,270,0.0,0.0,83,0.00,,,0.00,WUHU216HW,2013-02-01 17:41:00,
2013-02-01 09:46:00,47.6,42.0,30.20,West,270,0.0,0.0,81,0.00,,,0.00,WUHU216HW,2013-02-01 17:46:00,
2013-02-01 09:51:00,50.7,44.7,30.20,West,270,0.0,0.0,80,0.00,,,0.00,WUHU216HW,2013-02-01 17:51:00,
2013-02-01 09:56:00,51.4,44.1,30.19,West,270,0.0,0.0,74,0.00,,,0.00,WUHU216HW,2013-02-01 17:56:00,
2013-02-01 10:01:00,51.6,43.2,30.20,WSW,248,0.0,0.0,73,0.00,,,0.00,WUHU216HW,2013-02-01 18:01:00,
2013-02-01 10:06:00,51.6,43.2,30.20,WSW,248,0.0,0.0,73,0.00,,,0.00,WUHU216HW,2013-02-01 18:06:00,
2013-02-01 10:11:00,53.0,41.9,30.19,WSW,248,0.0,0.0,66,0.00,,,0.00,WUHU216HW,2013-02-01 18:11:00,
2013-02-01 10:16:00,53.0,41.9,30.19,WSW,248,0.0,0.0,66,0.00,,,0.00,WUHU216HW,2013-02-01 18:16:00,
2013-02-01 10:21:00,53.7,41.8,30.19,WSW,248,0.0,0.0,64,0.00,,,0.00,WUHU216HW,2013-02-01 18:21:00,
2013-02-01 10:26:00,54.1,41.7,30.19,WSW,248,0.0,0.0,63,0.00,,,0.00,WUHU216HW,2013-02-01 18:26:00,
2013-02-01 10:31:00,54.3,41.5,30.19,WSW,248,0.0,0.0,62,0.00,,,0.00,WUHU216HW,2013-02-01 18:31:00,
2013-02-01 10:36:00,54.6,41.4,30.19,WSW,248,0.0,0.0,61,0.00,,,0.00,WUHU216HW,2013-02-01 18:36:00,
2013-02-01 10:41:00,54.8,41.6,30.19,WSW,248,0.0,0.0,61,0.00,,,0.00,WUHU216HW,2013-02-01 18:41:00,
2013-02-01 10:46:00,55.0,40.9,30.19,WSW,248,0.0,0.0,59,0.00,,,0.00,WUHU216HW,2013-02-01 18:46:00,
2013-02-01 10:51:00,55.4,41.2,30.19,WSW,248,0.0,0.0,59,0.00,,,0.00,WUHU216HW,2013-02-01 18:51:00,
2013-02-01 10:56:00,55.7,40.6,30.19,WSW,248,0.0,0.0,57,0.00,,,0.00,WUHU216HW,2013-02-01 18:56:00,
2013-02-01 11:01:00,56.3,40.7,30.19,WSW,248,0.0,0.0,56,0.00,,,0.00,WUHU216HW,2013-02-01 19:01:00,
2013-02-01 11:06:00,56.4,40.4,30.19,WSW,248,0.0,0.0,55,0.00,,,0.00,WUHU216HW,2013-02-01 19:06:00,
2013-02-01 11:11:00,56.4,39.9,30.18,WSW,248,0.0,0.0,54,0.00,,,0.00,WUHU216HW,2013-02-01 19:11:00,
2013-02-01 11:16:00,57.2,40.7,30.18,WSW,248,0.0,0.0,54,0.00,,,0.00,WUHU216HW,2013-02-01 19:16:00,
2013-02-01 11:21:00,57.5,41.0,30.18,ESE,113,0.0,0.0,54,0.00,,,0.00,WUHU216HW,2013-02-01 19:21:00,
2013-02-01 11:26:00,57.9,41.3,30.18,ESE,113,0.0,0.0,54,0.00,,,0.00,WUHU216HW,2013-02-01 19:26:00,
2013-02-01 11:31:00,57.9,41.3,30.18,East,90,0.0,0.0,54,0.00,,,0.00,WUHU216HW,2013-02-01 19:31:00,
2013-02-01 11:36:00,57.9,41.3,30.18,East,90,0.0,0.0,54,0.00,,,0.00,WUHU216HW,2013-02-01 19:36:00,
2013-02-01 11:41:00,59.1,41.0,30.18,East,90,0.0,0.0,51,0.00,,,0.00,WUHU216HW,2013-02-01 19:41:00,
2013-02-01 11:46:00,59.1,41.0,30.18,WSW,248,0.0,0.0,51,0.00,,,0.00,WUHU216HW,2013-02-01 19:46:00,
2013-02-01 11:51:00,60.2,41.0,30.18,NW,315,0.0,0.0,49,0.00,,,0.00,WUHU216HW,2013-02-01 19:51:00,
2013-02-01 11:56:00,60.4,41.1,30.18,WSW,248,0.0,0.0,49,0.00,,,0.00,WUHU216HW,2013-02-01 19:56:00,
2013-02-01 12:01:00,60.4,41.1,30.17,NW,315,0.0,0.0,49,0.00,,,0.00,WUHU216HW,2013-02-01 20:01:00,
2013-02-01 12:06:00,60.4,41.1,30.17,NW,315,0.0,0.0,49,0.00,,,0.00,WUHU216HW,2013-02-01 20:06:00,
2013-02-01 12:11:00,60.4,40.6,30.17,NW,315,0.0,0.0,48,0.00,,,0.00,WUHU216HW,2013-02-01 20:11:00,
2013-02-01 12:16:00,63.3,43.1,30.17,ESE,113,0.0,0.0,48,0.00,,,0.00,WUHU216HW,2013-02-01 20:16:00,
2013-02-01 12:21:00,63.6,43.5,30.17,ESE,113,0.0,0.0,48,0.00,,,0.00,WUHU216HW,2013-02-01 20:21:00,
2013-02-01 12:26:00,64.4,44.1,30.16,WNW,293,0.0,0.0,48,0.00,,,0.00,WUHU216HW,2013-02-01 20:26:00,
2013-02-01 12:31:00,64.4,44.1,30.17,WNW,293,0.0,0.0,48,0.00,,,0.00,WUHU216HW,2013-02-01 20:31:00,
2013-02-01 12:36:00,64.9,44.6,30.17,NW,315,0.0,0.0,48,0.00,,,0.00,WUHU216HW,2013-02-01 20:36:00,
2013-02-01 12:41:00,66.0,45.7,30.16,NW,315,0.0,0.0,48,0.00,,,0.00,WUHU216HW,2013-02-01 20:41:00,
2013-02-01 12:46:00,66.3,45.5,30.15,NW,315,0.0,0.0,47,0.00,,,0.00,WUHU216HW,2013-02-01 20:46:00,
2013-02-01 12:51:00,66.5,45.0,30.15,North,0,0.0,0.0,46,0.00,,,0.00,WUHU216HW,2013-02-01 20:51:00,
2013-02-01 12:56:00,67.2,46.3,30.15,NW,315,0.0,0.0,47,0.00,,,0.00,WUHU216HW,2013-02-01 20:56:00,
2013-02-01 13:01:00,68.1,46.5,30.15,NNW,338,0.0,0.0,46,0.00,,,0.00,WUHU216HW,2013-02-01 21:01:00,
2013-02-01 13:06:00,69.2,47.6,30.15,WNW,293,0.0,0.0,47,0.00,,,0.00,WUHU216HW,2013-02-01 21:06:00,
2013-02-01 13:11:00,70.3,47.8,30.14,ESE,113,0.0,0.0,45,0.00,,,0.00,WUHU216HW,2013-02-01 21:11:00,
2013-02-01 13:16:00,70.3,46.0,30.15,NW,315,0.0,0.0,42,0.00,,,0.00,WUHU216HW,2013-02-01 21:16:00,
2013-02-01 13:21:00,71.0,46.2,30.15,NNW,338,0.0,0.0,44,0.00,,,0.00,WUHU216HW,2013-02-01 21:21:00,
2013-02-01 13:26:00,71.7,48.5,30.14,East,90,0.0,0.0,44,0.00,,,0.00,WUHU216HW,2013-02-01 21:26:00,
2013-02-01 13:31:00,73.0,48.5,30.14,NNW,338,0.0,0.0,42,0.00,,,0.00,WUHU216HW,2013-02-01 21:31:00,
2013-02-01 13:36:00,73.0,48.5,30.13,ESE,113,0.0,0.0,42,0.00,,,0.00,WUHU216HW,2013-02-01 21:36:00,
2013-02-01 13:41:00,76.4,49.6,30.13,ESE,113,0.0,0.0,39,0.00,,,0.00,WUHU216HW,2013-02-01 21:41:00,
2013-02-01 13:46:00,76.4,48.1,30.13,SSE,158,3.8,3.8,37,0.00,,,0.00,WUHU216HW,2013-02-01 21:46:00,
2013-02-01 13:51:00,79.1,48.2,30.13,South,180,0.0,3.8,34,0.00,,,0.00,WUHU216HW,2013-02-01 21:51:00,
2013-02-01 13:56:00,79.1,47.4,30.12,WNW,293,0.0,0.0,33,0.00,,,0.00,WUHU216HW,2013-02-01 21:56:00,
2013-02-01 14:01:00,79.1,47.4,30.12,WNW,293,0.0,0.0,33,0.00,,,0.00,WUHU216HW,2013-02-01 22:01:00,
2013-02-01 14:06:00,81.8,48.1,30.13,ESE,113,0.0,0.0,31,0.00,,,0.00,WUHU216HW,2013-02-01 22:06:00,
2013-02-01 14:12:00,82.5,48.0,30.12,ESE,113,0.0,0.0,30,0.00,,,0.00,WUHU216HW,2013-02-01 22:12:00,
2013-02-01 14:17:00,83.4,47.7,30.13,North,0,0.0,0.0,29,0.00,,,0.00,WUHU216HW,2013-02-01 22:17:00,
2013-02-01 14:22:00,83.4,47.7,30.12,NE,45,0.0,0.0,29,0.00,,,0.00,WUHU216HW,2013-02-01 22:22:00,
2013-02-01 14:27:00,84.3,47.4,30.12,NNW,338,0.0,0.0,28,0.00,,,0.00,WUHU216HW,2013-02-01 22:27:00,
2013-02-01 14:32:00,84.9,47.9,30.12,East,90,0.0,0.0,28,0.00,,,0.00,WUHU216HW,2013-02-01 22:32:00,
2013-02-01 14:37:00,85.4,47.3,30.12,East,90,0.0,0.0,27,0.00,,,0.00,WUHU216HW,2013-02-01 22:37:00,
2013-02-01 14:42:00,86.1,46.9,30.12,ESE,113,0.0,0.0,26,0.00,,,0.00,WUHU216HW,2013-02-01 22:42:00,
2013-02-01 14:47:00,86.1,46.9,30.12,ESE,113,0.0,0.0,26,0.00,,,0.00,WUHU216HW,2013-02-01 22:47:00,
2013-02-01 14:52:00,86.1,45.8,30.12,ESE,113,0.0,0.0,25,0.00,,,0.00,WUHU216HW,2013-02-01 22:52:00,
2013-02-01 14:57:00,86.9,45.3,30.11,NNW,338,0.0,0.0,24,0.00,,,0.00,WUHU216HW,2013-02-01 22:57:00,
2013-02-01 15:02:00,86.9,45.3,30.12,NW,315,0.0,0.0,24,0.00,,,0.00,WUHU216HW,2013-02-01 23:02:00,
2013-02-01 15:07:00,86.9,44.2,30.12,NNW,338,0.0,0.0,23,0.00,,,0.00,WUHU216HW,2013-02-01 23:07:00,
2013-02-01 15:12:00,86.9,45.3,30.12,ENE,68,0.0,0.0,23,0.00,,,0.00,WUHU216HW,2013-02-01 23:12:00,
2013-02-01 15:17:00,86.9,44.2,30.11,North,0,0.0,0.0,23,0.00,,,0.00,WUHU216HW,2013-02-01 23:17:00,
2013-02-01 15:22:00,86.9,44.2,30.12,ESE,113,0.0,0.0,23,0.00,,,0.00,WUHU216HW,2013-02-01 23:22:00,
2013-02-01 15:27:00,86.9,45.3,30.11,ESE,113,0.0,0.0,24,0.00,,,0.00,WUHU216HW,2013-02-01 23:27:00,
2013-02-01 15:32:00,86.3,43.8,30.12,WNW,293,0.0,0.0,23,0.00,,,0.00,WUHU216HW,2013-02-01 23:32:00,
2013-02-01 15:37:00,86.1,43.6,30.11,NW,315,0.0,0.0,23,0.00,,,0.00,WUHU216HW,2013-02-01 23:37:00,
2013-02-01 15:42:00,84.7,42.4,30.11,NE,45,0.0,0.0,23,0.00,,,0.00,WUHU216HW,2013-02-01 23:42:00,
2013-02-01 15:47:00,84.7,42.4,30.11,WNW,293,0.0,0.0,23,0.00,,,0.00,WUHU216HW,2013-02-01 23:47:00,
2013-02-01 15:52:00,81.5,40.8,30.11,NW,315,0.0,0.0,24,0.00,,,0.00,WUHU216HW,2013-02-01 23:52:00,
2013-02-01 15:57:00,78.6,40.4,30.11,ESE,113,0.0,0.0,26,0.00,,,0.00,WUHU216HW,2013-02-01 23:57:00,
2013-02-01 16:02:00,78.6,41.5,30.11,ESE,113,0.0,0.0,27,0.00,,,0.00,WUHU216HW,2013-02-02 00:02:00,
2013-02-01 16:07:00,76.4,39.7,30.12,NW,315,0.0,0.0,27,0.00,,,0.00,WUHU216HW,2013-02-02 00:07:00,
2013-02-01 16:12:00,76.4,41.8,30.11,North,0,0.0,0.0,29,0.00,,,0.00,WUHU216HW,2013-02-02 00:12:00,
2013-02-01 16:17:00,73.7,40.4,30.11,West,270,0.0,0.0,30,0.00,,,0.00,WUHU216HW,2013-02-02 00:17:00,
2013-02-01 16:22:00,73.7,40.4,30.11,WNW,293,0.0,0.0,30,0.00,,,0.00,WUHU216HW,2013-02-02 00:22:00,
2013-02-01 16:27:00,71.2,39.8,30.11,ENE,68,0.0,0.0,32,0.00,,,0.00,WUHU216HW,2013-02-02 00:27:00,
2013-02-01 16:32:00,70.7,39.3,30.11,ESE,113,0.0,0.0,32,0.00,,,0.00,WUHU216HW,2013-02-02 00:32:00,
2013-02-01 16:37:00,70.3,39.7,30.11,ESE,113,0.0,0.0,33,0.00,,,0.00,WUHU216HW,2013-02-02 00:37:00,
2013-02-01 16:42:00,69.9,39.4,30.11,SE,135,0.0,0.0,33,0.00,,,0.00,WUHU216HW,2013-02-02 00:42:00,
2013-02-01 16:47:00,69.0,39.3,30.11,SE,135,0.0,0.0,34,0.00,,,0.00,WUHU216HW,2013-02-02 00:47:00,
2013-02-01 16:52:00,69.0,39.3,30.11,East,90,0.0,0.0,34,0.00,,,0.00,WUHU216HW,2013-02-02 00:52:00,
2013-02-01 16:57:00,68.0,39.1,30.11,East,90,0.0,0.0,35,0.00,,,0.00,WUHU216HW,2013-02-02 00:57:00,
2013-02-01 17:02:00,67.6,39.5,30.11,East,90,0.0,0.0,36,0.00,,,0.00,WUHU216HW,2013-02-02 01:02:00,
2013-02-01 17:07:00,66.9,38.9,30.11,East,90,0.0,0.0,37,0.00,,,0.00,WUHU216HW,2013-02-02 01:07:00,
2013-02-01 17:12:00,66.5,39.3,30.11,East,90,0.0,0.0,37,0.00,,,0.00,WUHU216HW,2013-02-02 01:12:00,
2013-02-01 17:17:00,65.8,38.6,30.11,East,90,0.0,0.0,37,0.00,,,0.00,WUHU216HW,2013-02-02 01:17:00,
2013-02-01 17:22:00,64.9,38.0,30.11,East,90,0.0,0.0,37,0.00,,,0.00,WUHU216HW,2013-02-02 01:22:00,
2013-02-01 17:27:00,64.7,38.4,30.11,ESE,113,0.0,0.0,38,0.00,,,0.00,WUHU216HW,2013-02-02 01:27:00,
2013-02-01 17:32:00,63.8,37.6,30.11,ESE,113,0.0,0.0,38,0.00,,,0.00,WUHU216HW,2013-02-02 01:32:00,
2013-02-01 17:37:00,63.3,37.1,30.11,ESE,113,0.0,0.0,39,0.00,,,0.00,WUHU216HW,2013-02-02 01:37:00,
2013-02-01 17:42:00,62.6,37.2,30.11,ESE,113,0.0,0.0,39,0.00,,,0.00,WUHU216HW,2013-02-02 01:42:00,
2013-02-01 17:47:00,62.0,36.7,30.11,ESE,113,0.0,0.0,39,0.00,,,0.00,WUHU216HW,2013-02-02 01:47:00,
2013-02-01 17:52:00,61.3,36.0,30.11,ESE,113,0.0,0.0,39,0.00,,,0.00,WUHU216HW,2013-02-02 01:52:00,
2013-02-01 17:57:00,60.6,35.4,30.12,ESE,113,0.0,0.0,39,0.00,,,0.00,WUHU216HW,2013-02-02 01:57:00,
2013-02-01 18:02:00,60.2,35.8,30.12,ESE,113,0.0,0.0,40,0.00,,,0.00,WUHU216HW,2013-02-02 02:02:00,
2013-02-01 18:07:00,59.9,36.0,30.12,ESE,113,0.0,0.0,41,0.00,,,0.00,WUHU216HW,2013-02-02 02:07:00,
2013-02-01 18:12:00,59.3,35.6,30.12,ESE,113,0.0,0.0,41,0.00,,,0.00,WUHU216HW,2013-02-02 02:12:00,
2013-02-01 18:17:00,58.6,34.9,30.13,ESE,113,0.0,0.0,41,0.00,,,0.00,WUHU216HW,2013-02-02 02:17:00,
2013-02-01 18:22:00,58.1,35.0,30.13,ESE,113,0.0,0.0,42,0.00,,,0.00,WUHU216HW,2013-02-02 02:22:00,
2013-02-01 18:27:00,57.9,36.0,30.14,ESE,113,0.0,0.0,44,0.00,,,0.00,WUHU216HW,2013-02-02 02:27:00,
2013-02-01 18:32:00,57.9,36.6,30.14,ESE,113,0.0,0.0,45,0.00,,,0.00,WUHU216HW,2013-02-02 02:32:00,
2013-02-01 18:37:00,57.9,37.1,30.14,NNE,23,0.0,0.0,46,0.00,,,0.00,WUHU216HW,2013-02-02 02:37:00,
2013-02-01 18:42:00,57.9,37.1,30.14,NNE,23,0.0,0.0,46,0.00,,,0.00,WUHU216HW,2013-02-02 02:42:00,
2013-02-01 18:47:00,57.9,36.6,30.15,NNE,23,0.0,0.0,45,0.00,,,0.00,WUHU216HW,2013-02-02 02:47:00,
2013-02-01 18:52:00,56.1,34.9,30.15,NNE,23,0.0,0.0,45,0.00,,,0.00,WUHU216HW,2013-02-02 02:52:00,
2013-02-01 18:57:00,55.5,34.9,30.15,NNE,23,0.0,0.0,46,0.00,,,0.00,WUHU216HW,2013-02-02 02:57:00,
2013-02-01 19:02:00,55.2,35.2,30.15,NNE,23,0.0,0.0,47,0.00,,,0.00,WUHU216HW,2013-02-02 03:02:00,
2013-02-01 19:07:00,54.8,35.9,30.16,NNE,23,0.0,0.0,49,0.00,,,0.00,WUHU216HW,2013-02-02 03:07:00,
2013-02-01 19:12:00,54.6,35.8,30.16,NNE,23,0.0,0.0,49,0.00,,,0.00,WUHU216HW,2013-02-02 03:12:00,
2013-02-01 19:17:00,54.3,35.5,30.16,NNE,23,0.0,0.0,49,0.00,,,0.00,WUHU216HW,2013-02-02 03:17:00,
2013-02-01 19:22:00,53.9,35.7,30.16,NNE,23,0.0,0.0,50,0.00,,,0.00,WUHU216HW,2013-02-02 03:22:00,
2013-02-01 19:27:00,53.7,35.5,30.16,NNE,23,0.0,0.0,50,0.00,,,0.00,WUHU216HW,2013-02-02 03:27:00,
2013-02-01 19:32:00,53.4,35.2,30.16,NE,45,0.0,0.0,51,0.00,,,0.00,WUHU216HW,2013-02-02 03:32:00,
2013-02-01 19:37:00,53.2,36.0,30.17,NE,45,0.0,0.0,52,0.00,,,0.00,WUHU216HW,2013-02-02 03:37:00,
2013-02-01 19:42:00,52.8,35.6,30.17,NE,45,0.0,0.0,52,0.00,,,0.00,WUHU216HW,2013-02-02 03:42:00,
2013-02-01 19:47:00,52.7,35.5,30.17,NE,45,0.0,0.0,52,0.00,,,0.00,WUHU216HW,2013-02-02 03:47:00,
2013-02-01 19:52:00,52.3,35.6,30.17,NE,45,0.0,0.0,53,0.00,,,0.00,WUHU216HW,2013-02-02 03:52:00,
2013-02-01 19:57:00,52.1,35.4,30.17,NE,45,0.0,0.0,53,0.00,,,0.00,WUHU216HW,2013-02-02 03:57:00,
2013-02-01 20:02:00,51.9,34.8,30.17,NE,45,0.0,0.0,52,0.00,,,0.00,WUHU216HW,2013-02-02 04:02:00,
2013-02-01 20:07:00,51.6,34.9,30.17,NE,45,0.0,0.0,53,0.00,,,0.00,WUHU216HW,2013-02-02 04:07:00,
2013-02-01 20:12:00,51.4,35.2,30.17,NE,45,0.0,0.0,54,0.00,,,0.00,WUHU216HW,2013-02-02 04:12:00,
2013-02-01 20:17:00,51.4,34.8,30.17,NE,45,0.0,0.0,53,0.00,,,0.00,WUHU216HW,2013-02-02 04:17:00,
2013-02-01 20:22:00,51.4,34.8,30.17,NE,45,0.0,0.0,53,0.00,,,0.00,WUHU216HW,2013-02-02 04:22:00,
2013-02-01 20:28:00,50.9,34.3,30.17,NE,45,0.0,0.0,53,0.00,,,0.00,WUHU216HW,2013-02-02 04:28:00,
2013-02-01 20:33:00,50.7,34.6,30.18,NE,45,0.0,0.0,54,0.00,,,0.00,WUHU216HW,2013-02-02 04:33:00,
2013-02-01 20:38:00,50.5,34.4,30.18,NE,45,0.0,0.0,54,0.00,,,0.00,WUHU216HW,2013-02-02 04:38:00,
2013-02-01 20:43:00,50.3,34.3,30.18,NE,45,0.0,0.0,54,0.00,,,0.00,WUHU216HW,2013-02-02 04:43:00,
2013-02-01 20:48:00,50.1,34.1,30.18,NE,45,0.0,0.0,54,0.00,,,0.00,WUHU216HW,2013-02-02 04:48:00,
2013-02-01 20:53:00,50.1,34.1,30.18,NE,45,0.0,0.0,54,0.00,,,0.00,WUHU216HW,2013-02-02 04:53:00,
2013-02-01 20:58:00,49.6,33.6,30.19,NE,45,0.0,0.0,54,0.00,,,0.00,WUHU216HW,2013-02-02 04:58:00,
2013-02-01 21:03:00,49.6,34.0,30.19,NE,45,0.0,0.0,55,0.00,,,0.00,WUHU216HW,2013-02-02 05:03:00,
2013-02-01 21:08:00,49.6,34.0,30.19,NE,45,0.0,0.0,55,0.00,,,0.00,WUHU216HW,2013-02-02 05:08:00,
2013-02-01 21:13:00,49.1,33.5,30.19,NE,45,0.0,0.0,55,0.00,,,0.00,WUHU216HW,2013-02-02 05:13:00,
2013-02-01 21:18:00,48.9,33.8,30.19,NE,45,0.0,0.0,56,0.00,,,0.00,WUHU216HW,2013-02-02 05:18:00,
2013-02-01 21:23:00,48.9,33.8,30.19,NE,45,0.0,0.0,56,0.00,,,0.00,WUHU216HW,2013-02-02 05:23:00,
2013-02-01 21:28:00,48.3,33.8,30.19,NE,45,0.0,0.0,57,0.00,,,0.00,WUHU216HW,2013-02-02 05:28:00,
2013-02-01 21:33:00,48.3,33.8,30.19,NE,45,0.0,0.0,57,0.00,,,0.00,WUHU216HW,2013-02-02 05:33:00,
2013-02-01 21:38:00,48.2,33.6,30.19,NE,45,0.0,0.0,57,0.00,,,0.00,WUHU216HW,2013-02-02 05:38:00,
2013-02-01 21:43:00,47.8,33.2,30.19,NE,45,0.0,0.0,57,0.00,,,0.00,WUHU216HW,2013-02-02 05:43:00,
2013-02-01 21:48:00,47.8,33.2,30.19,NE,45,0.0,0.0,57,0.00,,,0.00,WUHU216HW,2013-02-02 05:48:00,
2013-02-01 21:53:00,47.4,33.4,30.19,NE,45,0.0,0.0,58,0.00,,,0.00,WUHU216HW,2013-02-02 05:53:00,
2013-02-01 21:58:00,47.3,33.2,30.19,NE,45,0.0,0.0,58,0.00,,,0.00,WUHU216HW,2013-02-02 05:58:00,
2013-02-01 22:03:00,47.3,33.2,30.19,NE,45,0.0,0.0,58,0.00,,,0.00,WUHU216HW,2013-02-02 06:03:00,
2013-02-01 22:08:00,47.1,33.0,30.19,NE,45,0.0,0.0,58,0.00,,,0.00,WUHU216HW,2013-02-02 06:08:00,
2013-02-01 22:13:00,47.1,33.0,30.19,NE,45,0.0,0.0,58,0.00,,,0.00,WUHU216HW,2013-02-02 06:13:00,
2013-02-01 22:18:00,47.1,33.5,30.19,NE,45,0.0,0.0,59,0.00,,,0.00,WUHU216HW,2013-02-02 06:18:00,
2013-02-01 22:23:00,46.7,33.1,30.19,NE,45,0.0,0.0,59,0.00,,,0.00,WUHU216HW,2013-02-02 06:23:00,
2013-02-01 22:28:00,46.5,33.4,30.19,NE,45,0.0,0.0,60,0.00,,,0.00,WUHU216HW,2013-02-02 06:28:00,
2013-02-01 22:33:00,46.5,33.4,30.19,NE,45,0.0,0.0,60,0.00,,,0.00,WUHU216HW,2013-02-02 06:33:00,
2013-02-01 22:38:00,46.4,33.2,30.19,NE,45,0.0,0.0,60,0.00,,,0.00,WUHU216HW,2013-02-02 06:38:00,
2013-02-01 22:43:00,46.4,33.2,30.19,NE,45,0.0,0.0,60,0.00,,,0.00,WUHU216HW,2013-02-02 06:43:00,
2013-02-01 22:48:00,46.4,33.2,30.19,NE,45,0.0,0.0,60,0.00,,,0.00,WUHU216HW,2013-02-02 06:48:00,
2013-02-01 22:53:00,46.4,33.2,30.19,NE,45,0.0,0.0,60,0.00,,,0.00,WUHU216HW,2013-02-02 06:53:00,
2013-02-01 22:58:00,45.5,32.4,30.19,NE,45,0.0,0.0,60,0.00,,,0.00,WUHU216HW,2013-02-02 06:58:00,
2013-02-01 23:03:00,45.5,32.4,30.19,NE,45,0.0,0.0,60,0.00,,,0.00,WUHU216HW,2013-02-02 07:03:00,
2013-02-01 23:08:00,45.5,32.8,30.19,NE,45,0.0,0.0,61,0.00,,,0.00,WUHU216HW,2013-02-02 07:08:00,
2013-02-01 23:13:00,45.3,32.6,30.19,NE,45,0.0,0.0,61,0.00,,,0.00,WUHU216HW,2013-02-02 07:13:00,
2013-02-01 23:18:00,45.3,32.6,30.19,NE,45,0.0,0.0,61,0.00,,,0.00,WUHU216HW,2013-02-02 07:18:00,
2013-02-01 23:23:00,44.9,32.3,30.19,NE,45,0.0,0.0,61,0.00,,,0.00,WUHU216HW,2013-02-02 07:23:00,
2013-02-01 23:28:00,44.7,32.1,30.19,NE,45,0.0,0.0,61,0.00,,,0.00,WUHU216HW,2013-02-02 07:28:00,
2013-02-01 23:33:00,44.7,32.1,30.20,NE,45,0.0,0.0,61,0.00,,,0.00,WUHU216HW,2013-02-02 07:33:00,
2013-02-01 23:38:00,44.4,32.2,30.20,NE,45,0.0,0.0,62,0.00,,,0.00,WUHU216HW,2013-02-02 07:38:00,
2013-02-01 23:43:00,44.4,32.2,30.20,NE,45,0.0,0.0,62,0.00,,,0.00,WUHU216HW,2013-02-02 07:43:00,
2013-02-01 23:48:00,44.4,32.2,30.20,NE,45,0.0,0.0,62,0.00,,,0.00,WUHU216HW,2013-02-02 07:48:00,
2013-02-01 23:53:00,44.0,31.8,30.20,NE,45,0.0,0.0,62,0.00,,,0.00,WUHU216HW,2013-02-02 07:53:00,
2013-02-01 23:58:00,44.0,31.8,30.20,NE,45,0.0,0.0,62,0.00,,,0.00,WUHU216HW,2013-02-02 07:58:00,